Time;durP1;ratioP1;P1;durP2;ratioP2;P2;SDS_P1;SDS_P2;PMS_P1;PMS_P2;Temp;Humidity;BMP_temperature;BMP_pressure;BME280_temperature;BME280_humidity;BME280_pressure;Samples;Min_cycle;Max_cycle;Signal;HPM_P1;HPM_P2
2021/07/09 00:00:34;;;;;;;25.85;16.73;;;18.50;99.90;;;;;;4988658;28;20074;-84
2021/07/09 00:03:10;;;;;;;33.55;16.83;;;18.30;99.90;;;;;;4987216;28;20051;-83
2021/07/09 00:05:39;;;;;;;32.95;17.65;;;18.30;99.90;;;;;;4987613;28;20054;-82
2021/07/09 00:08:09;;;;;;;38.55;17.17;;;18.10;99.90;;;;;;4985492;28;20125;-83
2021/07/09 00:10:59;;;;;;;30.63;17.35;;;18.10;99.90;;;;;;4990602;28;20089;-84
2021/07/09 00:17:32;;;;;;;27.23;17.77;;;18.40;99.90;;;;;;4984249;28;20423;-84
2021/07/09 00:30:46;;;;;;;27.40;18.02;;;18.40;99.90;;;;;;4896359;29;20052;-84
2021/07/09 00:33:59;;;;;;;32.72;19.02;;;18.40;99.90;;;;;;4867679;29;20077;-83
2021/07/09 00:36:31;;;;;;;30.58;18.83;;;18.40;99.90;;;;;;4811597;29;20050;-82
2021/07/09 00:38:58;;;;;;;29.20;18.75;;;18.40;99.90;;;;;;4976873;28;20190;-82
2021/07/09 00:41:25;;;;;;;32.92;19.08;;;18.30;99.90;;;;;;4983926;28;20051;-80
2021/07/09 00:43:51;;;;;;;33.40;19.65;;;18.30;99.90;;;;;;4987022;28;20054;-81
2021/07/09 00:46:35;;;;;;;30.95;19.52;;;18.30;99.90;;;;;;4981593;28;20119;-83
2021/07/09 00:49:03;;;;;;;31.20;19.55;;;18.30;99.90;;;;;;4985005;28;20055;-82
2021/07/09 00:51:30;;;;;;;30.58;18.45;;;18.40;99.90;;;;;;4990681;28;20074;-83
2021/07/09 00:53:57;;;;;;;33.33;20.35;;;18.40;99.90;;;;;;4987527;28;20114;-83
2021/07/09 00:56:25;;;;;;;29.20;20.05;;;18.40;99.90;;;;;;4985650;28;20133;-82
2021/07/09 00:58:54;;;;;;;42.72;21.50;;;18.30;99.90;;;;;;4979816;28;20082;-81
2021/07/09 01:01:21;;;;;;;32.03;20.38;;;18.30;99.90;;;;;;4978467;28;20129;-82
2021/07/09 01:03:50;;;;;;;29.67;19.58;;;18.30;99.90;;;;;;4979983;28;20086;-81
2021/07/09 01:06:17;;;;;;;32.78;18.50;;;18.30;99.90;;;;;;4979659;28;20435;-80
2021/07/09 01:08:44;;;;;;;28.98;17.65;;;18.30;99.90;;;;;;4978861;28;20046;-82
2021/07/09 01:11:11;;;;;;;27.80;17.10;;;18.30;99.90;;;;;;4980194;28;20109;-82
2021/07/09 01:13:41;;;;;;;26.63;18.50;;;18.20;99.90;;;;;;4980176;28;20053;-84
2021/07/09 01:16:08;;;;;;;22.08;16.98;;;18.20;99.90;;;;;;4980017;28;20736;-82
2021/07/09 01:18:36;;;;;;;27.70;18.67;;;18.30;99.90;;;;;;4981353;28;20097;-82
2021/07/09 01:21:08;;;;;;;26.20;17.58;;;18.30;99.90;;;;;;4978523;28;20061;-80
2021/07/09 01:23:36;;;;;;;27.95;18.05;;;18.40;99.90;;;;;;4978726;28;20467;-80
2021/07/09 01:26:05;;;;;;;28.10;18.35;;;18.40;99.90;;;;;;4976355;28;20050;-79
2021/07/09 01:28:32;;;;;;;26.67;18.08;;;18.50;99.90;;;;;;4975752;28;20138;-79
2021/07/09 01:31:00;;;;;;;25.38;16.65;;;18.40;99.90;;;;;;4979657;28;20054;-79
2021/07/09 01:33:27;;;;;;;24.38;16.65;;;18.40;99.90;;;;;;4987539;28;20081;-79
2021/07/09 01:35:55;;;;;;;19.38;14.85;;;18.50;99.90;;;;;;4979084;28;20078;-81
2021/07/09 01:38:22;;;;;;;26.73;15.13;;;18.50;99.90;;;;;;4978496;28;20093;-81
2021/07/09 01:40:49;;;;;;;23.42;15.35;;;18.50;99.90;;;;;;4977808;28;20086;-81
2021/07/09 01:43:18;;;;;;;23.55;14.50;;;18.50;99.90;;;;;;4979169;28;20579;-81
2021/07/09 01:45:45;;;;;;;19.00;13.52;;;18.50;99.90;;;;;;4983659;28;20078;-82
2021/07/09 01:48:12;;;;;;;27.77;13.90;;;18.50;99.90;;;;;;4982625;28;20051;-82
2021/07/09 02:05:45;;;;;;;27.10;15.60;;;18.30;99.90;;;;;;4988339;28;20065;-76
2021/07/09 02:08:15;;;;;;;24.65;15.40;;;18.20;99.90;;;;;;4974209;28;20051;-77
2021/07/09 02:10:57;;;;;;;28.23;15.35;;;18.30;99.90;;;;;;4973818;28;20051;-75
2021/07/09 02:14:01;;;;;;;33.65;16.27;;;18.20;99.90;;;;;;4972124;28;20054;-77
2021/07/09 02:19:58;;;;;;;22.60;15.85;;;18.20;99.90;;;;;;4957233;28;20092;-75
2021/07/09 02:22:40;;;;;;;29.05;17.13;;;18.10;99.90;;;;;;4973389;28;20150;-76
2021/07/09 02:25:20;;;;;;;40.78;20.30;;;18.00;99.90;;;;;;4972944;28;20046;-76
2021/07/09 02:27:56;;;;;;;41.78;22.30;;;18.00;99.90;;;;;;4973422;28;20102;-77
2021/07/09 02:30:49;;;;;;;34.20;24.30;;;17.90;99.90;;;;;;4973188;28;20070;-77
2021/07/09 02:33:22;;;;;;;38.50;25.45;;;17.80;99.90;;;;;;4972845;28;20143;-77
2021/07/09 02:35:51;;;;;;;36.92;26.55;;;17.80;99.90;;;;;;4973372;28;20085;-77
2021/07/09 02:38:26;;;;;;;40.42;27.15;;;17.70;99.90;;;;;;4973393;28;20058;-77
2021/07/09 02:40:58;;;;;;;38.80;28.13;;;17.70;99.90;;;;;;4973245;28;20050;-77
2021/07/09 02:43:33;;;;;;;44.15;27.27;;;17.70;99.90;;;;;;4973318;28;20125;-77
2021/07/09 02:46:07;;;;;;;36.20;27.25;;;17.70;99.90;;;;;;4973615;28;20055;-77
2021/07/09 02:48:34;;;;;;;41.13;27.42;;;17.70;99.90;;;;;;4973078;28;20047;-77
2021/07/09 02:51:13;;;;;;;45.15;26.85;;;17.70;99.90;;;;;;4972977;28;20090;-77
2021/07/09 02:53:44;;;;;;;44.33;27.08;;;17.70;99.90;;;;;;4972682;28;20507;-77
2021/07/09 02:56:11;;;;;;;37.47;27.35;;;17.70;99.90;;;;;;4973013;28;20062;-77
2021/07/09 02:58:38;;;;;;;48.10;26.55;;;17.70;99.90;;;;;;4972657;28;20141;-77
2021/07/09 03:01:08;;;;;;;40.72;28.67;;;17.60;99.90;;;;;;4972795;28;20047;-78
2021/07/09 03:03:37;;;;;;;46.83;28.60;;;17.60;99.90;;;;;;4972000;28;20114;-77
2021/07/09 03:06:05;;;;;;;42.78;28.15;;;17.60;99.90;;;;;;4973035;28;20087;-77
2021/07/09 03:08:31;;;;;;;43.53;30.33;;;17.60;99.90;;;;;;4973032;28;20117;-76
2021/07/09 03:11:00;;;;;;;43.35;31.85;;;17.50;99.90;;;;;;4972291;28;20054;-78
2021/07/09 03:13:27;;;;;;;41.88;30.90;;;17.50;99.90;;;;;;4972621;28;20113;-77
2021/07/09 03:15:56;;;;;;;51.75;32.45;;;17.40;99.90;;;;;;4972410;28;20090;-78
2021/07/09 03:18:34;;;;;;;46.47;32.03;;;17.30;99.90;;;;;;4972420;28;20094;-77
2021/07/09 03:21:04;;;;;;;45.88;31.70;;;17.30;99.90;;;;;;4972723;28;20051;-78
2021/07/09 03:23:34;;;;;;;44.10;31.42;;;17.20;99.90;;;;;;4972252;28;20134;-77
2021/07/09 03:26:04;;;;;;;45.25;32.53;;;17.20;99.90;;;;;;4976453;28;20086;-77
2021/07/09 03:28:33;;;;;;;45.88;33.55;;;17.20;99.90;;;;;;4976449;28;20054;-77
2021/07/09 03:31:00;;;;;;;47.92;34.08;;;17.20;99.90;;;;;;4976721;28;20050;-80
2021/07/09 03:33:27;;;;;;;49.13;35.38;;;17.20;99.90;;;;;;4976954;28;20055;-76
2021/07/09 03:35:54;;;;;;;48.97;33.72;;;17.10;99.90;;;;;;4976238;28;20046;-78
2021/07/09 03:38:21;;;;;;;50.60;33.17;;;17.20;99.90;;;;;;4975775;28;20431;-76
2021/07/09 03:40:48;;;;;;;41.88;33.75;;;17.20;99.90;;;;;;4975264;28;20050;-77
2021/07/09 03:43:16;;;;;;;51.40;34.58;;;17.20;99.90;;;;;;4974774;28;20491;-76
2021/07/09 03:45:43;;;;;;;41.85;34.72;;;17.30;99.90;;;;;;4975094;28;20555;-76
2021/07/09 03:48:15;;;;;;;43.28;34.22;;;17.30;99.90;;;;;;4975056;28;20078;-76
2021/07/09 03:50:45;;;;;;;41.85;33.70;;;17.30;99.90;;;;;;4975169;28;20069;-77
2021/07/09 03:53:12;;;;;;;46.33;34.10;;;17.30;99.90;;;;;;4974678;28;20619;-77
2021/07/09 03:55:39;;;;;;;52.50;34.58;;;17.30;99.90;;;;;;4975282;28;20511;-77
2021/07/09 03:58:06;;;;;;;47.92;35.13;;;17.20;99.90;;;;;;4974930;28;20133;-77
2021/07/09 04:00:34;;;;;;;48.30;34.88;;;17.20;99.90;;;;;;4975629;28;20400;-77
2021/07/09 04:03:01;;;;;;;48.17;34.08;;;17.30;99.90;;;;;;4974723;28;20059;-77
2021/07/09 04:05:30;;;;;;;43.88;35.05;;;17.40;99.90;;;;;;4974732;28;20137;-78
2021/07/09 04:07:56;;;;;;;51.08;34.78;;;17.40;99.90;;;;;;4974806;28;20129;-77
2021/07/09 04:10:24;;;;;;;49.80;34.85;;;17.30;99.90;;;;;;4974814;28;20051;-78
2021/07/09 04:12:50;;;;;;;52.95;36.80;;;17.30;99.90;;;;;;4975193;28;20090;-77
2021/07/09 04:15:19;;;;;;;45.38;34.78;;;17.30;99.90;;;;;;4975056;28;20057;-77
2021/07/09 04:17:50;;;;;;;42.95;33.95;;;17.40;99.90;;;;;;4974937;28;20057;-79
2021/07/09 04:20:31;;;;;;;50.95;34.92;;;17.40;99.90;;;;;;4974774;28;20069;-77
2021/07/09 04:23:17;;;;;;;50.75;35.83;;;17.30;99.90;;;;;;4974306;28;20170;-78
2021/07/09 04:25:55;;;;;;;46.33;34.67;;;17.30;99.90;;;;;;4974926;28;20046;-77
2021/07/09 04:28:22;;;;;;;46.20;34.88;;;17.40;99.90;;;;;;4974837;28;20055;-77
2021/07/09 04:30:50;;;;;;;49.92;36.70;;;17.40;99.90;;;;;;4974586;28;20078;-78
2021/07/09 04:33:18;;;;;;;48.90;36.67;;;17.40;99.90;;;;;;4973786;28;20057;-78
2021/07/09 04:35:45;;;;;;;48.47;34.80;;;17.30;99.90;;;;;;4973325;28;20061;-79
2021/07/09 04:38:12;;;;;;;44.40;35.65;;;17.40;99.90;;;;;;4973944;28;20570;-77
2021/07/09 04:40:39;;;;;;;44.95;34.53;;;17.40;99.90;;;;;;4973953;28;20057;-77
2021/07/09 04:43:06;;;;;;;49.20;34.40;;;17.50;99.90;;;;;;4973889;28;20074;-78
2021/07/09 04:45:33;;;;;;;47.25;34.20;;;17.40;99.90;;;;;;4974176;28;20051;-78
2021/07/09 04:48:00;;;;;;;51.63;35.80;;;17.50;99.90;;;;;;4973835;28;20054;-78
2021/07/09 04:50:28;;;;;;;48.60;35.67;;;17.40;99.90;;;;;;4973948;28;20500;-78
2021/07/09 04:52:56;;;;;;;44.83;34.28;;;17.40;99.90;;;;;;4973812;28;20086;-77
2021/07/09 04:55:22;;;;;;;44.20;35.65;;;17.40;99.90;;;;;;4973974;28;20466;-78
2021/07/09 04:57:49;;;;;;;43.42;36.20;;;17.40;99.90;;;;;;4974029;28;20142;-78
2021/07/09 05:00:16;;;;;;;48.17;36.42;;;17.50;99.90;;;;;;4974055;28;20133;-78
2021/07/09 05:02:43;;;;;;;49.53;36.08;;;17.50;99.90;;;;;;4973936;28;20061;-78
2021/07/09 05:05:16;;;;;;;53.58;36.67;;;17.50;99.90;;;;;;4973837;28;20057;-77
2021/07/09 05:07:44;;;;;;;51.60;38.33;;;17.50;99.90;;;;;;4974201;28;20055;-79
2021/07/09 05:10:11;;;;;;;51.08;36.90;;;17.50;99.90;;;;;;4973994;28;20581;-79
2021/07/09 05:12:38;;;;;;;47.00;37.03;;;17.50;99.90;;;;;;4973760;28;20142;-78
2021/07/09 05:15:06;;;;;;;45.15;36.50;;;17.50;99.90;;;;;;4973259;28;20060;-78
2021/07/09 05:17:34;;;;;;;46.13;37.80;;;17.50;99.90;;;;;;4973689;28;20057;-78
2021/07/09 05:20:01;;;;;;;55.55;37.88;;;17.60;99.90;;;;;;4973526;28;20055;-78
2021/07/09 05:22:28;;;;;;;49.78;37.70;;;17.50;99.90;;;;;;4973484;28;20141;-78
2021/07/09 05:24:56;;;;;;;46.42;38.25;;;17.60;99.90;;;;;;4973404;28;20138;-77
2021/07/09 05:27:24;;;;;;;47.45;38.55;;;17.60;99.90;;;;;;4973564;28;20051;-78
2021/07/09 05:29:51;;;;;;;51.88;37.65;;;17.70;99.90;;;;;;4973700;28;20042;-77
2021/07/09 05:32:22;;;;;;;49.80;38.95;;;17.70;99.90;;;;;;4973358;28;20563;-78
2021/07/09 05:34:49;;;;;;;52.40;37.63;;;17.70;99.90;;;;;;4973141;28;20082;-77
2021/07/09 05:37:16;;;;;;;49.15;37.15;;;17.80;99.90;;;;;;4973059;28;20050;-78
2021/07/09 05:39:43;;;;;;;48.80;37.08;;;17.80;99.90;;;;;;4974198;28;20142;-79
2021/07/09 05:42:12;;;;;;;49.88;37.45;;;17.80;99.90;;;;;;4973766;28;20057;-79
2021/07/09 05:44:39;;;;;;;56.95;39.05;;;17.80;99.90;;;;;;4973639;28;20060;-79
2021/07/09 05:47:06;;;;;;;46.92;36.55;;;17.90;99.90;;;;;;4974040;28;20074;-79
2021/07/09 05:49:33;;;;;;;47.58;36.55;;;18.00;99.90;;;;;;4975499;28;20134;-80
2021/07/09 05:52:00;;;;;;;52.05;37.30;;;18.10;99.90;;;;;;4975999;28;20086;-79
2021/07/09 05:54:27;;;;;;;45.20;35.72;;;18.20;99.90;;;;;;4974228;28;20102;-80
2021/07/09 05:56:54;;;;;;;40.85;35.22;;;18.30;99.90;;;;;;4973947;28;20050;-78
2021/07/09 05:59:22;;;;;;;50.40;36.38;;;18.40;99.90;;;;;;4973896;28;20419;-76
2021/07/09 06:01:49;;;;;;;44.72;36.28;;;18.40;99.90;;;;;;4973237;28;20547;-78
2021/07/09 06:04:17;;;;;;;43.90;35.13;;;18.40;99.90;;;;;;4972787;28;20069;-77
2021/07/09 06:06:44;;;;;;;52.97;37.63;;;18.40;99.90;;;;;;4947866;28;20052;-78
2021/07/09 06:09:11;;;;;;;41.53;36.35;;;18.40;99.90;;;;;;4941768;29;20552;-78
2021/07/09 06:11:38;;;;;;;44.35;35.83;;;18.40;99.90;;;;;;4948364;28;20051;-78
2021/07/09 06:14:05;;;;;;;46.83;36.75;;;18.40;99.90;;;;;;4953687;28;20055;-77
2021/07/09 06:16:33;;;;;;;46.88;35.70;;;18.50;99.90;;;;;;4954192;28;20093;-78
2021/07/09 06:19:00;;;;;;;42.17;33.67;;;18.50;99.90;;;;;;4953503;28;20089;-78
2021/07/09 06:21:30;;;;;;;39.90;34.60;;;18.50;99.90;;;;;;4950875;28;20486;-78
2021/07/09 06:23:57;;;;;;;41.40;35.97;;;18.50;99.90;;;;;;4948719;29;20059;-78
2021/07/09 06:26:24;;;;;;;44.72;34.90;;;18.50;99.90;;;;;;4939573;28;20047;-78
2021/07/09 06:28:51;;;;;;;42.33;35.08;;;18.60;99.90;;;;;;4946922;28;20473;-78
2021/07/09 06:31:20;;;;;;;41.58;34.70;;;18.50;99.90;;;;;;4946692;29;20396;-78
2021/07/09 06:33:48;;;;;;;45.90;33.92;;;18.50;99.90;;;;;;4949171;28;20134;-77
2021/07/09 06:36:15;;;;;;;42.72;35.92;;;18.60;99.90;;;;;;4937755;28;20056;-78
2021/07/09 06:38:42;;;;;;;39.28;34.28;;;18.60;99.90;;;;;;4934940;29;20139;-77
2021/07/09 06:41:09;;;;;;;39.05;33.75;;;18.60;99.90;;;;;;4935943;29;20083;-78
2021/07/09 06:43:38;;;;;;;43.92;35.30;;;18.70;99.90;;;;;;4936998;29;20055;-78
2021/07/09 06:46:05;;;;;;;41.58;33.10;;;18.70;99.90;;;;;;4936853;28;20059;-80
2021/07/09 06:48:32;;;;;;;40.08;33.30;;;18.70;99.90;;;;;;4937288;29;20062;-78
2021/07/09 06:51:00;;;;;;;43.90;33.90;;;18.70;99.90;;;;;;4937093;29;20115;-78
2021/07/09 07:12:42;;;;;;;43.97;33.75;;;18.60;99.90;;;;;;4868551;29;20136;-80
2021/07/09 07:21:16;;;;;;;44.35;33.65;;;18.80;99.90;;;;;;5005139;28;20062;-80
2021/07/09 07:23:48;;;;;;;45.75;35.90;;;18.90;99.90;;;;;;5010913;28;20154;-79
2021/07/09 07:26:15;;;;;;;40.95;34.67;;;18.90;99.90;;;;;;5010630;28;20060;-80
2021/07/09 07:28:54;;;;;;;39.08;33.80;;;18.90;99.90;;;;;;5010777;28;20045;-81
2021/07/09 07:34:33;;;;;;;37.08;33.05;;;19.20;99.90;;;;;;5018740;23;20065;-85
2021/07/09 07:37:00;;;;;;;36.30;32.08;;;19.30;99.90;;;;;;4990291;28;20042;-85
2021/07/09 07:39:26;;;;;;;40.95;31.98;;;19.50;99.90;;;;;;4988750;28;20043;-85
2021/07/09 07:41:53;;;;;;;36.55;31.33;;;19.60;99.90;;;;;;4999063;28;20047;-83
2021/07/09 07:44:21;;;;;;;37.35;31.80;;;19.70;99.90;;;;;;4998364;28;20105;-81
2021/07/09 07:46:50;;;;;;;39.63;31.80;;;19.70;99.90;;;;;;4997825;28;20106;-81
2021/07/09 07:49:21;;;;;;;37.10;30.90;;;19.80;99.90;;;;;;4992876;28;20134;-83
2021/07/09 07:51:50;;;;;;;39.55;31.73;;;19.90;99.90;;;;;;4993969;28;20093;-83
2021/07/09 07:54:17;;;;;;;36.53;30.15;;;19.90;99.90;;;;;;4992517;28;20055;-83
2021/07/09 07:56:44;;;;;;;40.17;30.92;;;19.80;99.90;;;;;;4993493;28;20089;-83
2021/07/09 07:59:13;;;;;;;36.55;29.40;;;19.70;99.90;;;;;;4990803;28;20078;-84
2021/07/09 08:01:40;;;;;;;44.95;32.75;;;19.60;99.90;;;;;;4986566;28;20204;-84
2021/07/09 08:04:07;;;;;;;36.85;30.20;;;19.40;99.90;;;;;;4985671;28;20059;-84
2021/07/09 08:06:34;;;;;;;42.00;31.02;;;19.30;99.90;;;;;;4985733;28;20134;-83
2021/07/09 08:09:05;;;;;;;33.78;29.25;;;19.30;99.90;;;;;;4984299;28;20062;-84
2021/07/09 08:11:34;;;;;;;37.90;29.77;;;19.30;99.90;;;;;;4985025;28;20082;-83
2021/07/09 08:17:58;;;;;;;34.03;27.17;;;19.70;99.90;;;;;;4980164;28;20055;-85
2021/07/09 08:20:36;;;;;;;33.78;27.33;;;19.90;99.90;;;;;;4985990;28;20079;-84
2021/07/09 08:23:10;;;;;;;35.80;26.95;;;20.10;99.90;;;;;;4986537;28;20141;-83
2021/07/09 08:26:07;;;;;;;32.88;25.80;;;20.20;99.90;;;;;;4981271;28;20055;-83
2021/07/09 08:59:20;;;;;;;31.92;19.42;;;20.80;99.90;;;;;;4922427;29;20142;-82
2021/07/09 09:15:47;;;;;;;22.95;16.52;;;20.60;99.90;;;;;;4984849;28;20512;-80
2021/07/09 09:35:42;;;;;;;25.55;16.00;;;20.50;99.90;;;;;;4895231;29;20147;-78
2021/07/09 09:38:11;;;;;;;24.92;16.58;;;20.60;99.90;;;;;;4896680;29;20061;-78
2021/07/09 09:40:39;;;;;;;22.40;15.90;;;20.40;99.90;;;;;;4939008;28;20058;-79
2021/07/09 09:43:15;;;;;;;19.75;15.43;;;20.40;99.90;;;;;;4976250;28;20086;-78
2021/07/09 09:45:46;;;;;;;18.92;15.00;;;20.50;99.90;;;;;;4974932;28;20054;-78
2021/07/09 09:48:16;;;;;;;24.80;15.15;;;20.70;99.90;;;;;;4974503;28;20105;-78
2021/07/09 09:50:46;;;;;;;19.92;15.32;;;20.50;99.90;;;;;;4974532;28;20089;-78
2021/07/09 09:53:13;;;;;;;24.65;15.02;;;20.60;99.90;;;;;;4975904;28;20047;-79
2021/07/09 09:55:41;;;;;;;19.45;14.68;;;20.70;99.90;;;;;;4975973;28;20054;-80
2021/07/09 09:58:10;;;;;;;22.92;15.95;;;20.80;99.90;;;;;;4980332;28;20055;-81
2021/07/09 10:00:38;;;;;;;21.85;14.93;;;20.90;99.90;;;;;;4981781;28;20042;-80
2021/07/09 10:03:05;;;;;;;23.73;15.73;;;21.10;99.90;;;;;;4982794;28;20133;-80
2021/07/09 10:05:37;;;;;;;23.17;16.08;;;21.30;99.90;;;;;;4982348;28;20501;-80
2021/07/09 10:08:09;;;;;;;23.27;17.23;;;21.40;99.90;;;;;;4983881;28;20055;-81
2021/07/09 10:11:13;;;;;;;23.40;15.97;;;21.40;99.90;;;;;;4983385;28;20122;-81
2021/07/09 10:13:42;;;;;;;25.15;16.00;;;21.40;99.90;;;;;;4943033;28;20054;-79
2021/07/09 10:16:14;;;;;;;19.75;16.15;;;21.70;99.90;;;;;;4976758;28;20055;-79
2021/07/09 10:18:54;;;;;;;23.38;16.42;;;21.70;99.90;;;;;;4979471;28;20058;-81
2021/07/09 10:21:35;;;;;;;22.67;15.35;;;21.60;99.90;;;;;;4979894;28;20093;-80
2021/07/09 10:27:13;;;;;;;24.48;15.38;;;21.90;99.90;;;;;;4976389;28;20055;-80
2021/07/09 10:33:33;;;;;;;20.38;15.23;;;22.40;99.90;;;;;;4868716;29;20196;-80
2021/07/09 10:50:56;;;;;;;18.40;15.30;;;23.60;99.90;;;;;;4946974;29;20134;-82
2021/07/09 11:04:10;;;;;;;18.67;15.35;;;23.50;99.90;;;;;;4816717;29;20065;-85
2021/07/09 11:09:58;;;;;;;19.67;16.00;;;23.50;99.90;;;;;;4969953;28;20173;-80
2021/07/09 11:12:53;;;;;;;19.73;16.40;;;23.60;99.90;;;;;;4989251;28;20054;-82
2021/07/09 11:26:46;;;;;;;;;;;;;;;;;;;;;
2021/07/09 11:49:04;;;;;;;18.23;11.43;;;24.20;99.90;;;;;;4978817;23;20101;-79
2021/07/09 11:51:31;;;;;;;20.52;12.10;;;24.20;99.90;;;;;;4981614;28;20053;-79
2021/07/09 11:54:06;;;;;;;14.13;10.98;;;24.10;99.90;;;;;;4982804;28;20111;-79
2021/07/09 11:56:39;;;;;;;14.10;10.60;;;24.20;99.90;;;;;;4983923;28;20061;-79
2021/07/09 11:59:16;;;;;;;17.17;10.25;;;24.20;99.90;;;;;;4982573;28;20062;-81
2021/07/09 12:01:43;;;;;;;16.08;10.70;;;24.20;99.90;;;;;;4983026;28;20046;-78
2021/07/09 12:04:31;;;;;;;15.82;10.48;;;24.00;99.90;;;;;;4984396;28;20519;-79
2021/07/09 12:07:30;;;;;;;11.80;9.80;;;23.90;99.90;;;;;;4982993;28;20531;-78
2021/07/09 12:10:08;;;;;;;11.77;9.35;;;24.10;99.90;;;;;;4983936;28;20050;-80
2021/07/09 12:12:39;;;;;;;16.23;9.68;;;24.20;99.90;;;;;;4983604;28;20526;-80
2021/07/09 12:15:16;;;;;;;11.20;9.00;;;24.30;99.90;;;;;;4982695;28;20051;-80
2021/07/09 12:17:46;;;;;;;10.38;8.75;;;24.40;99.90;;;;;;4984453;28;20051;-80
2021/07/09 12:20:19;;;;;;;12.98;8.98;;;24.50;99.90;;;;;;4983189;28;20523;-79
2021/07/09 12:22:52;;;;;;;11.23;8.80;;;24.50;99.90;;;;;;4983124;28;20105;-80
2021/07/09 12:25:22;;;;;;;12.55;8.52;;;24.40;99.90;;;;;;4983577;28;20126;-82
2021/07/09 12:27:49;;;;;;;11.23;8.55;;;24.30;99.90;;;;;;4982444;28;20525;-80
2021/07/09 12:30:18;;;;;;;11.50;8.15;;;24.20;99.90;;;;;;4983364;28;20119;-80
2021/07/09 12:32:54;;;;;;;11.75;8.85;;;24.10;99.90;;;;;;4983079;28;20051;-81
2021/07/09 12:35:24;;;;;;;9.50;8.13;;;24.10;99.90;;;;;;4982842;28;20081;-79
2021/07/09 12:38:02;;;;;;;10.93;8.70;;;24.10;99.90;;;;;;4977847;28;20057;-79
2021/07/09 12:40:32;;;;;;;11.00;8.90;;;24.10;99.90;;;;;;4978859;28;20462;-79
2021/07/09 12:43:20;;;;;;;10.65;9.40;;;24.20;99.90;;;;;;4979069;28;20046;-79
2021/07/09 12:45:55;;;;;;;17.48;9.50;;;24.00;99.90;;;;;;4977996;28;20534;-80
2021/07/09 12:48:33;;;;;;;14.05;8.95;;;23.80;99.90;;;;;;4978090;28;20133;-80
2021/07/09 12:51:14;;;;;;;12.77;9.00;;;23.80;99.90;;;;;;4978522;28;20049;-79
2021/07/09 12:53:50;;;;;;;10.68;9.07;;;23.80;99.90;;;;;;4977815;28;20422;-80
2021/07/09 12:56:18;;;;;;;13.73;9.73;;;23.70;99.90;;;;;;4977348;28;20051;-79
2021/07/09 12:58:50;;;;;;;13.43;9.40;;;23.60;99.90;;;;;;4977856;28;20093;-80
2021/07/09 13:01:17;;;;;;;14.90;9.70;;;23.50;99.90;;;;;;4977329;28;20086;-77
2021/07/09 13:03:45;;;;;;;12.13;10.13;;;23.40;99.90;;;;;;4977550;28;20093;-80
2021/07/09 13:06:15;;;;;;;9.93;8.45;;;23.40;99.90;;;;;;4979853;28;20051;-80
2021/07/09 13:08:45;;;;;;;14.50;9.32;;;23.40;99.90;;;;;;4980583;28;20055;-80
2021/07/09 13:11:17;;;;;;;15.52;8.52;;;23.60;99.90;;;;;;4980228;28;20142;-81
2021/07/09 13:13:49;;;;;;;13.20;9.93;;;23.70;99.90;;;;;;4981458;28;20058;-82
2021/07/09 13:16:17;;;;;;;16.35;10.02;;;23.80;99.90;;;;;;4981086;28;20051;-82
2021/07/09 13:18:52;;;;;;;10.30;8.68;;;23.70;99.90;;;;;;4980556;28;20482;-82
2021/07/09 13:21:21;;;;;;;12.38;9.27;;;23.60;99.90;;;;;;4980324;28;20553;-80
2021/07/09 13:24:08;;;;;;;10.88;9.07;;;23.70;99.90;;;;;;4981107;28;20073;-82
2021/07/09 13:26:37;;;;;;;12.95;9.40;;;23.70;99.90;;;;;;4982616;28;20051;-80
2021/07/09 13:29:15;;;;;;;12.45;10.40;;;23.80;99.90;;;;;;4982064;28;20069;-83
2021/07/09 13:31:43;;;;;;;13.23;9.52;;;23.80;99.90;;;;;;4983152;28;20336;-82
2021/07/09 13:34:10;;;;;;;11.73;9.55;;;23.80;99.90;;;;;;4982623;28;20062;-80
2021/07/09 13:36:39;;;;;;;12.20;10.73;;;23.80;99.90;;;;;;4979951;28;20069;-81
2021/07/09 13:39:06;;;;;;;12.13;10.38;;;23.90;99.90;;;;;;4978655;28;20566;-80
2021/07/09 13:41:35;;;;;;;13.15;11.48;;;24.00;99.90;;;;;;4979970;28;20054;-81
2021/07/09 13:44:02;;;;;;;13.10;10.43;;;24.00;99.90;;;;;;4980692;28;20118;-81
2021/07/09 13:46:29;;;;;;;12.93;10.27;;;24.00;99.90;;;;;;4981292;28;20051;-81
2021/07/09 13:48:56;;;;;;;13.57;11.52;;;24.00;99.90;;;;;;4977118;28;20203;-80
2021/07/09 13:51:23;;;;;;;13.07;11.38;;;24.10;99.90;;;;;;4977964;28;20053;-80
2021/07/09 13:53:52;;;;;;;19.02;12.32;;;24.20;99.90;;;;;;4978108;28;20118;-80
2021/07/09 13:56:19;;;;;;;13.05;11.65;;;24.20;99.90;;;;;;4978992;28;20432;-82
2021/07/09 13:58:46;;;;;;;13.95;11.95;;;24.30;99.90;;;;;;4979050;28;20129;-81
2021/07/09 14:01:14;;;;;;;14.90;12.52;;;24.30;99.90;;;;;;4979755;28;20050;-81
2021/07/09 14:03:42;;;;;;;14.52;12.77;;;24.40;99.90;;;;;;4976016;28;20150;-81
2021/07/09 14:06:11;;;;;;;15.13;12.60;;;24.40;99.90;;;;;;4977792;28;20082;-79
2021/07/09 14:08:38;;;;;;;13.50;12.20;;;24.50;99.90;;;;;;4975780;28;20563;-81
2021/07/09 14:18:23;;;;;;;13.30;11.98;;;24.80;99.90;;;;;;4960153;28;20069;-82
2021/07/09 14:50:21;;;;;;;13.57;11.45;;;25.10;99.90;;;;;;6201071;22;1374785;-83
2021/07/09 14:52:49;;;;;;;12.75;10.95;;;25.10;99.90;;;;;;6260444;23;20020;-83
2021/07/09 14:55:17;;;;;;;14.25;11.48;;;24.80;99.90;;;;;;6260115;23;20020;-83
2021/07/09 14:57:44;;;;;;;15.98;10.82;;;24.80;99.90;;;;;;6260197;23;20024;-82
2021/07/09 15:00:13;;;;;;;12.90;11.35;;;24.70;99.90;;;;;;6261305;22;20030;-83
2021/07/09 15:05:09;;;;;;;13.60;11.60;;;24.70;99.90;;;;;;6248017;22;20024;-78
2021/07/09 15:07:38;;;;;;;13.50;10.65;;;24.70;99.90;;;;;;6251361;23;20602;-78
2021/07/09 15:10:06;;;;;;;14.52;10.82;;;24.70;99.90;;;;;;6251729;23;20103;-81
2021/07/09 15:12:33;;;;;;;13.25;10.68;;;24.70;99.90;;;;;;6251446;23;20099;-80
2021/07/09 15:14:59;;;;;;;12.88;11.00;;;24.60;99.90;;;;;;6251475;22;20348;-78
2021/07/09 15:17:26;;;;;;;12.75;10.63;;;24.60;99.90;;;;;;6251253;23;20098;-78
2021/07/09 15:19:53;;;;;;;12.73;10.85;;;24.70;99.90;;;;;;6251476;23;20494;-78
2021/07/09 15:22:20;;;;;;;12.52;11.10;;;24.80;99.90;;;;;;6251510;23;20351;-78
2021/07/09 15:24:48;;;;;;;15.10;11.30;;;24.70;99.90;;;;;;6250878;22;20026;-76
2021/07/09 15:27:15;;;;;;;13.18;11.45;;;24.60;99.90;;;;;;6251380;23;20526;-78
2021/07/09 15:29:42;;;;;;;12.48;11.27;;;24.70;99.90;;;;;;6251858;23;20023;-78
2021/07/09 15:32:10;;;;;;;12.85;11.65;;;24.70;99.90;;;;;;6251269;23;20096;-76
2021/07/09 15:34:37;;;;;;;15.88;11.82;;;24.80;99.90;;;;;;6251581;22;20518;-78
2021/07/09 15:37:04;;;;;;;13.27;11.88;;;24.80;99.90;;;;;;6251060;23;20016;-76
2021/07/09 15:39:32;;;;;;;13.95;12.30;;;24.70;99.90;;;;;;6251728;23;20054;-77
2021/07/09 15:42:00;;;;;;;16.15;12.32;;;24.70;99.90;;;;;;6251973;23;20307;-75
2021/07/09 15:44:27;;;;;;;14.15;12.25;;;24.70;99.90;;;;;;6251081;22;20027;-77
2021/07/09 15:46:54;;;;;;;13.73;12.30;;;24.60;99.90;;;;;;6249012;23;20095;-77
2021/07/09 15:49:21;;;;;;;13.70;12.27;;;24.70;99.90;;;;;;6244888;23;20051;-77
2021/07/09 15:51:48;;;;;;;13.60;12.20;;;24.70;99.90;;;;;;6244399;23;20020;-76
2021/07/09 15:54:18;;;;;;;13.50;12.20;;;24.80;99.90;;;;;;6244508;22;20303;-77
2021/07/09 15:56:45;;;;;;;12.95;11.73;;;24.90;99.90;;;;;;6244451;23;20384;-76
2021/07/09 15:59:14;;;;;;;13.70;12.38;;;24.90;99.90;;;;;;6244303;23;20095;-77
2021/07/09 16:01:40;;;;;;;16.08;11.93;;;24.80;99.90;;;;;;6244033;23;20099;-77
2021/07/09 16:04:07;;;;;;;13.45;11.95;;;24.80;99.90;;;;;;6243890;22;20090;-76
2021/07/09 16:06:34;;;;;;;14.20;12.75;;;24.80;99.90;;;;;;6244127;23;20051;-77
2021/07/09 16:09:01;;;;;;;13.63;12.32;;;24.80;99.90;;;;;;6244000;23;20490;-75
2021/07/09 16:11:28;;;;;;;13.20;11.98;;;24.80;99.90;;;;;;6244327;23;20115;-77
2021/07/09 16:13:55;;;;;;;13.75;12.15;;;24.80;99.90;;;;;;6244455;22;20095;-77
2021/07/09 16:16:23;;;;;;;14.40;12.98;;;24.70;99.90;;;;;;6244822;23;20405;-78
2021/07/09 16:18:50;;;;;;;14.68;13.02;;;24.60;99.90;;;;;;6243898;23;20095;-78
2021/07/09 16:21:17;;;;;;;28.65;16.30;;;24.60;99.90;;;;;;6245128;23;20107;-77
2021/07/09 16:23:43;;;;;;;36.72;19.60;;;24.50;99.90;;;;;;6248211;22;20470;-75
2021/07/09 16:26:10;;;;;;;16.88;15.10;;;24.20;99.90;;;;;;6244751;23;20072;-77
2021/07/09 16:28:37;;;;;;;14.90;13.20;;;23.60;99.90;;;;;;6243961;23;20147;-74
2021/07/09 16:31:04;;;;;;;17.45;15.07;;;23.30;99.90;;;;;;6245435;23;20294;-75
2021/07/09 16:33:32;;;;;;;15.50;13.82;;;23.30;99.90;;;;;;6244977;22;20471;-75
2021/07/09 16:35:59;;;;;;;17.88;16.08;;;23.30;99.90;;;;;;6244161;23;20138;-75